Time;durP1;ratioP1;P1;durP2;ratioP2;P2;SDS_P1;SDS_P2;PMS_P1;PMS_P2;Temp;Humidity;BMP_temperature;BMP_pressure;BME280_temperature;BME280_humidity;BME280_pressure;Samples;Min_cycle;Max_cycle;Signal;HPM_P1;HPM_P2
2021/06/25 00:00:19;;;;;;;8.77;3.90;;;;;;;24.49;67.61;99108.44;5016842;28;20057;-72
2021/06/25 00:02:48;;;;;;;7.78;3.47;;;;;;;24.48;67.94;99110.22;5017026;28;20057;-73
2021/06/25 00:05:17;;;;;;;11.48;3.75;;;;;;;24.42;67.92;99117.63;5017049;28;20088;-72
2021/06/25 00:07:47;;;;;;;9.13;3.55;;;;;;;24.12;68.65;99120.44;5017031;28;20053;-72
2021/06/25 00:10:16;;;;;;;9.30;3.38;;;;;;;24.02;69.37;99143.63;5016913;28;20061;-72
2021/06/25 00:12:47;;;;;;;8.82;3.70;;;;;;;24.02;69.68;99142.00;5016814;28;20512;-71
2021/06/25 00:15:17;;;;;;;8.13;3.92;;;;;;;24.04;69.49;99166.19;5016896;28;20054;-71
2021/06/25 00:17:47;;;;;;;11.20;4.93;;;;;;;23.99;69.38;99169.91;5017342;28;20077;-71
2021/06/25 00:20:17;;;;;;;9.57;3.67;;;;;;;23.98;69.21;99183.06;5016759;28;20046;-72
2021/06/25 00:22:46;;;;;;;10.10;3.67;;;;;;;23.94;69.28;99166.78;5016643;28;20552;-71
2021/06/25 00:25:15;;;;;;;10.80;3.60;;;;;;;23.81;69.68;99160.66;5016428;28;20072;-71
2021/06/25 00:27:46;;;;;;;11.20;3.97;;;;;;;23.71;70.23;99164.75;4999098;28;20049;-72
2021/06/25 00:30:16;;;;;;;9.73;4.25;;;;;;;23.67;70.54;99165.91;5016578;28;20092;-71
2021/06/25 00:32:46;;;;;;;11.10;4.10;;;;;;;23.62;71.09;99164.50;5016518;28;20053;-72
2021/06/25 00:35:16;;;;;;;7.53;4.10;;;;;;;23.58;71.20;99166.47;5016543;28;20073;-70
2021/06/25 00:37:46;;;;;;;14.70;4.25;;;;;;;23.61;71.50;99162.84;4999218;28;20053;-71
2021/06/25 00:40:15;;;;;;;;;;;;;;;23.45;71.80;99162.94;5016771;28;20040;-71
2021/06/25 00:42:44;;;;;;;;;;;;;;;23.36;72.07;99158.28;5016673;28;19921;-71
2021/06/25 00:45:17;;;;;;;10.93;4.57;;;;;;;23.19;72.64;99161.06;5016229;28;19921;-72
2021/06/25 00:47:49;;;;;;;9.63;4.50;;;;;;;23.11;72.89;99158.06;5015709;28;20053;-71
2021/06/25 00:50:22;;;;;;;7.95;4.07;;;;;;;23.07;72.69;99167.00;5016525;28;20065;-70
2021/06/25 00:52:52;;;;;;;8.13;3.88;;;;;;;22.97;72.17;99160.66;5016218;28;20085;-72
2021/06/25 00:55:22;;;;;;;7.90;3.67;;;;;;;22.80;72.06;99161.66;5016040;28;20438;-72
2021/06/25 00:57:51;;;;;;;10.05;4.30;;;;;;;22.68;72.51;99155.41;5016118;28;20054;-71
2021/06/25 01:00:22;;;;;;;;;;;;;;;22.61;73.09;99158.44;5016454;28;20529;-72
2021/06/25 01:02:51;;;;;;;10.27;4.30;;;;;;;22.51;73.56;99167.66;4998539;28;19921;-70
2021/06/25 01:05:21;;;;;;;10.98;3.92;;;;;;;22.53;74.14;99166.66;5015748;28;20501;-72
2021/06/25 01:07:50;;;;;;;10.15;3.85;;;;;;;22.50;73.56;99177.25;5015869;28;20069;-72
2021/06/25 01:10:19;;;;;;;7.05;3.20;;;;;;;22.61;73.03;99185.31;5015853;28;20042;-71
2021/06/25 01:12:52;;;;;;;5.82;2.92;;;;;;;22.59;72.35;99171.53;5015763;28;20053;-72
2021/06/25 01:15:23;;;;;;;7.82;3.22;;;;;;;22.69;71.65;99164.06;5015934;28;20061;-72
2021/06/25 01:17:55;;;;;;;5.93;3.13;;;;;;;22.52;70.96;99159.81;5015693;28;20104;-71
2021/06/25 01:20:30;;;;;;;5.25;3.33;;;;;;;22.56;70.77;99166.50;5015890;28;20054;-72
2021/06/25 01:23:05;;;;;;;6.28;2.80;;;;;;;22.37;70.65;99160.66;5015862;28;20050;-71
2021/06/25 01:25:39;;;;;;;5.43;3.33;;;;;;;22.32;71.28;99169.66;5015441;28;20053;-72
2021/06/25 01:28:13;;;;;;;9.40;3.40;;;;;;;22.30;71.71;99169.75;5015733;28;20057;-72
2021/06/25 01:30:50;;;;;;;9.63;3.75;;;;;;;22.22;72.24;99173.72;5015676;28;20049;-72
2021/06/25 01:33:22;;;;;;;13.23;4.03;;;;;;;22.15;72.41;99178.41;5015596;28;20493;-71
2021/06/25 01:35:59;;;;;;;7.85;3.38;;;;;;;22.21;72.31;99175.47;5015641;28;20555;-71
2021/06/25 01:38:33;;;;;;;14.38;3.95;;;;;;;22.10;72.76;99183.00;5015578;28;20556;-72
2021/06/25 01:41:05;;;;;;;6.38;3.55;;;;;;;22.14;72.78;99189.75;5015783;28;20058;-72
2021/06/25 01:43:40;;;;;;;10.43;3.30;;;;;;;21.98;72.91;99192.31;5015503;28;20052;-72
2021/06/25 01:46:15;;;;;;;7.80;3.55;;;;;;;22.03;73.31;99192.06;5017012;28;20132;-73
2021/06/25 01:48:48;;;;;;;7.85;3.63;;;;;;;21.94;73.61;99189.97;5016501;28;20061;-72
2021/06/25 01:51:20;;;;;;;5.05;3.30;;;;;;;21.96;73.67;99190.72;5016008;28;20057;-72
2021/06/25 01:53:54;;;;;;;8.18;3.72;;;;;;;21.93;73.65;99190.94;5015241;28;20393;-72
2021/06/25 01:56:27;;;;;;;6.78;3.50;;;;;;;21.81;73.83;99196.75;5015462;28;20551;-73
2021/06/25 01:58:59;;;;;;;8.57;3.42;;;;;;;21.71;74.10;99203.34;5015162;28;20057;-72
2021/06/25 02:01:32;;;;;;;9.90;4.10;;;;;;;21.68;74.53;99200.91;5014159;28;20058;-71
2021/06/25 02:04:05;;;;;;;8.85;3.65;;;;;;;21.73;74.37;99198.91;5014950;28;20455;-72
2021/06/25 02:06:37;;;;;;;11.95;3.88;;;;;;;21.73;74.37;99202.34;5014965;28;20062;-72
2021/06/25 02:09:11;;;;;;;8.02;4.22;;;;;;;21.78;74.32;99207.31;5014951;28;20049;-73
2021/06/25 02:11:44;;;;;;;8.82;3.38;;;;;;;21.74;74.42;99185.03;5015215;28;20050;-71
2021/06/25 02:14:17;;;;;;;8.07;3.83;;;;;;;22.02;74.06;99180.00;5014909;28;20054;-70
2021/06/25 02:16:47;;;;;;;10.27;3.38;;;;;;;22.17;73.23;99176.53;5014795;28;20076;-71
2021/06/25 02:19:19;;;;;;;9.77;4.13;;;;;;;22.25;73.07;99165.72;5015056;28;20132;-68
2021/06/25 02:21:52;;;;;;;8.80;4.05;;;;;;;22.30;72.68;99174.94;5015053;28;20057;-71
2021/06/25 02:24:26;;;;;;;10.75;3.88;;;;;;;22.47;71.82;99181.78;5014661;28;20077;-71
2021/06/25 02:26:58;;;;;;;6.13;3.33;;;;;;;22.45;71.60;99181.88;5014611;28;20061;-72
2021/06/25 02:29:31;;;;;;;8.20;3.53;;;;;;;22.43;70.94;99181.13;5014635;28;20072;-71
2021/06/25 02:32:04;;;;;;;7.57;3.17;;;;;;;22.45;70.72;99183.66;5014611;28;20078;-68
2021/06/25 02:34:36;;;;;;;5.13;2.90;;;;;;;22.50;69.60;99187.66;5014669;28;20133;-71
2021/06/25 02:37:06;;;;;;;5.50;2.70;;;;;;;22.44;68.97;99177.59;5014397;28;20062;-71
2021/06/25 02:39:40;;;;;;;8.50;3.00;;;;;;;22.40;68.69;99191.72;5014464;28;20054;-70
2021/06/25 02:42:10;;;;;;;6.90;3.20;;;;;;;22.37;68.99;99175.44;5014434;28;20120;-71
2021/06/25 02:44:42;;;;;;;4.97;2.63;;;;;;;22.33;69.27;99185.19;5013124;28;20421;-70
2021/06/25 02:47:12;;;;;;;5.13;2.60;;;;;;;22.34;69.57;99181.63;5014229;28;20520;-71
2021/06/25 02:49:48;;;;;;;8.43;2.80;;;;;;;22.28;69.26;99178.56;5014297;28;20132;-71
2021/06/25 02:52:17;;;;;;;7.47;3.17;;;;;;;22.06;69.80;99186.72;5014248;28;20057;-71
2021/06/25 02:54:51;;;;;;;7.97;3.05;;;;;;;21.83;70.10;99185.34;5014198;28;20049;-70
2021/06/25 02:57:24;;;;;;;7.57;3.38;;;;;;;21.77;71.03;99187.44;5014131;28;20062;-72
2021/06/25 02:59:57;;;;;;;6.55;2.80;;;;;;;21.80;71.11;99188.13;5014132;28;20064;-72
2021/06/25 03:02:27;;;;;;;6.05;3.20;;;;;;;21.67;71.39;99183.63;5002158;28;20088;-71
2021/06/25 03:04:59;;;;;;;6.97;3.10;;;;;;;21.35;72.22;99188.78;4994341;28;20410;-72
2021/06/25 03:07:30;;;;;;;12.02;3.53;;;;;;;21.20;72.68;99194.78;4994192;28;20175;-71
2021/06/25 03:10:05;;;;;;;8.43;3.53;;;;;;;21.38;73.21;99199.94;4994014;28;20173;-71
2021/06/25 03:12:35;;;;;;;10.48;3.67;;;;;;;21.44;73.01;99192.66;4994361;28;20513;-73
2021/06/25 03:15:09;;;;;;;10.77;3.58;;;;;;;21.40;72.99;99185.13;4994683;28;20505;-71
2021/06/25 03:17:38;;;;;;;9.65;3.42;;;;;;;21.24;73.15;99191.13;4994118;28;20097;-72
2021/06/25 03:20:10;;;;;;;;;;;;;;;21.03;73.51;99181.81;4994672;28;20138;-71
2021/06/25 03:22:43;;;;;;;10.32;3.72;;;;;;;20.84;74.17;99181.06;4994276;28;19929;-72
2021/06/25 03:25:17;;;;;;;6.63;3.22;;;;;;;20.77;74.89;99169.31;4994185;28;20090;-72
2021/06/25 03:27:46;;;;;;;12.23;3.70;;;;;;;20.83;74.75;99179.38;4994319;28;20074;-72
2021/06/25 03:30:19;;;;;;;;;;;;;;;20.93;74.66;99184.94;4994887;28;20557;-71
2021/06/25 03:32:51;;;;;;;6.10;2.95;;;;;;;21.09;74.56;99186.69;4994179;28;19922;-71
2021/06/25 03:35:24;;;;;;;6.13;3.00;;;;;;;21.28;73.99;99177.03;4994150;28;20050;-71
2021/06/25 03:37:56;;;;;;;6.68;2.83;;;;;;;21.50;73.55;99191.53;4976818;28;20409;-71
2021/06/25 03:40:36;;;;;;;8.20;3.45;;;;;;;21.52;73.42;99189.69;4994125;28;20054;-72
2021/06/25 03:43:09;;;;;;;5.90;3.17;;;;;;;21.60;73.20;99183.13;4994025;28;20054;-71
2021/06/25 03:45:41;;;;;;;8.20;3.38;;;;;;;21.70;73.07;99193.88;4993930;28;20078;-72
2021/06/25 03:48:14;;;;;;;5.82;3.10;;;;;;;21.67;72.45;99200.06;4994365;28;20070;-71
2021/06/25 03:50:46;;;;;;;6.10;2.88;;;;;;;21.68;72.22;99213.91;4993767;28;20463;-71
2021/06/25 03:53:16;;;;;;;7.88;2.88;;;;;;;21.74;72.05;99200.59;4993992;28;20054;-71
2021/06/25 03:58:50;;;;;;;11.68;3.30;;;;;;;21.91;72.44;99218.72;4965142;28;20046;-71
2021/06/25 04:01:23;;;;;;;6.13;3.00;;;;;;;22.03;72.28;99223.25;4993576;28;20561;-71
2021/06/25 04:03:53;;;;;;;7.18;3.38;;;;;;;21.97;72.26;99213.22;4993913;28;20498;-71
2021/06/25 04:06:25;;;;;;;9.85;3.45;;;;;;;21.80;72.56;99215.84;4993624;28;20430;-71
2021/06/25 04:08:57;;;;;;;10.05;3.63;;;;;;;21.81;73.11;99222.75;4993917;28;20054;-70
2021/06/25 04:11:31;;;;;;;8.77;4.05;;;;;;;21.94;73.43;99231.56;4993860;28;20145;-71
2021/06/25 04:14:05;;;;;;;7.60;3.58;;;;;;;22.16;73.25;99229.47;4993802;28;20065;-72
2021/06/25 04:16:38;;;;;;;5.43;3.20;;;;;;;22.31;72.71;99239.03;4993808;28;20042;-72
2021/06/25 04:19:13;;;;;;;7.80;3.40;;;;;;;22.40;72.60;99237.69;4993795;28;20118;-71
2021/06/25 04:21:46;;;;;;;9.85;3.60;;;;;;;22.39;72.25;99238.59;4993829;28;20058;-71
2021/06/25 04:24:18;;;;;;;9.82;3.95;;;;;;;22.44;72.38;99245.22;4997085;28;20473;-72
2021/06/25 04:26:49;;;;;;;6.88;3.67;;;;;;;22.41;72.51;99236.78;4996997;28;20050;-71
2021/06/25 04:29:21;;;;;;;7.32;3.67;;;;;;;22.49;72.50;99243.22;4997249;28;20117;-71
2021/06/25 04:31:55;;;;;;;7.47;3.35;;;;;;;22.77;72.11;99245.09;4997203;28;20141;-71
2021/06/25 04:34:28;;;;;;;8.10;3.40;;;;;;;23.07;71.36;99250.31;4997148;28;20064;-72
2021/06/25 04:37:00;;;;;;;5.63;3.10;;;;;;;23.03;71.07;99248.81;4997156;28;20129;-71
2021/06/25 04:39:33;;;;;;;8.88;3.65;;;;;;;23.28;70.70;99254.25;4997016;28;20050;-71
2021/06/25 04:42:10;;;;;;;7.15;3.35;;;;;;;23.50;69.83;99270.31;4996781;28;20061;-71
2021/06/25 04:44:42;;;;;;;7.05;3.40;;;;;;;23.44;69.21;99257.69;4996966;28;20051;-71
2021/06/25 04:47:15;;;;;;;8.15;3.65;;;;;;;23.44;69.11;99260.28;4996603;28;20133;-70
2021/06/25 04:49:47;;;;;;;7.57;3.58;;;;;;;23.67;68.53;99267.53;4997138;28;20073;-71
2021/06/25 04:52:19;;;;;;;5.75;3.03;;;;;;;23.82;67.38;99269.22;4996643;28;20109;-70
2021/06/25 04:54:51;;;;;;;6.57;3.03;;;;;;;24.02;66.46;99263.59;4996582;28;20081;-71
2021/06/25 04:57:22;;;;;;;4.82;2.67;;;;;;;23.93;65.65;99258.09;4996751;28;20055;-71
2021/06/25 04:59:54;;;;;;;6.20;3.10;;;;;;;24.04;65.08;99275.72;4996982;28;20085;-71
2021/06/25 05:02:24;;;;;;;6.25;3.53;;;;;;;24.02;64.74;99268.81;4996224;28;20054;-71
2021/06/25 05:04:57;;;;;;;6.07;3.10;;;;;;;24.28;64.26;99269.81;4995469;28;20517;-72
2021/06/25 05:07:27;;;;;;;5.88;3.10;;;;;;;24.37;64.17;99274.47;4996327;28;20073;-71
2021/06/25 05:10:00;;;;;;;6.55;3.58;;;;;;;24.40;63.65;99276.03;4996570;28;20466;-71
2021/06/25 05:12:31;;;;;;;6.25;2.63;;;;;;;24.47;64.11;99272.94;4996490;28;20086;-70
2021/06/25 05:15:05;;;;;;;5.95;3.40;;;;;;;24.71;64.37;99280.13;4996479;28;20054;-70
2021/06/25 05:17:38;;;;;;;6.05;3.05;;;;;;;24.70;64.00;99286.28;4979265;28;20125;-70
2021/06/25 05:20:22;;;;;;;6.40;3.88;;;;;;;24.54;64.40;99291.66;4996629;28;20133;-71
2021/06/25 05:22:55;;;;;;;8.38;3.45;;;;;;;24.72;64.38;99298.28;4996267;28;20104;-71
2021/06/25 05:25:28;;;;;;;5.60;2.95;;;;;;;24.83;63.88;99295.88;4996239;28;20074;-71
2021/06/25 05:28:02;;;;;;;6.65;3.35;;;;;;;24.75;63.86;99295.50;4996441;28;20074;-71
2021/06/25 05:30:35;;;;;;;5.50;3.15;;;;;;;24.78;63.88;99305.78;4996667;28;20500;-70
2021/06/25 05:33:06;;;;;;;7.03;3.33;;;;;;;24.59;63.56;99300.84;4995742;28;20549;-71
2021/06/25 05:35:38;;;;;;;5.80;3.05;;;;;;;24.65;63.91;99307.47;4995857;28;20053;-71
2021/06/25 05:38:14;;;;;;;5.68;2.67;;;;;;;25.01;63.33;99315.56;4995831;28;20105;-71
2021/06/25 05:40:47;;;;;;;6.38;3.10;;;;;;;24.93;62.78;99320.44;4995886;28;20046;-71
2021/06/25 05:43:22;;;;;;;7.90;3.40;;;;;;;24.89;63.11;99328.56;4995962;28;20416;-71
2021/06/25 05:45:59;;;;;;;6.47;2.95;;;;;;;24.83;63.22;99326.38;4995699;28;20134;-72
2021/06/25 05:48:35;;;;;;;6.40;2.90;;;;;;;24.91;62.76;99335.38;4995726;28;20097;-71
2021/06/25 05:51:11;;;;;;;5.95;3.10;;;;;;;24.93;62.49;99346.53;4995700;28;20046;-71
2021/06/25 05:53:44;;;;;;;6.55;2.92;;;;;;;24.85;62.59;99343.59;4978107;28;20137;-70
2021/06/25 05:56:14;;;;;;;7.15;3.20;;;;;;;24.89;62.83;99345.06;4995633;28;20406;-70
2021/06/25 05:58:47;;;;;;;7.10;3.03;;;;;;;25.07;62.91;99346.50;4995671;28;20486;-71
2021/06/25 06:01:16;;;;;;;7.32;3.67;;;;;;;25.16;62.29;99332.84;4994578;28;20058;-71
2021/06/25 06:03:48;;;;;;;5.43;3.05;;;;;;;25.00;61.96;99332.16;4995205;28;20053;-71
2021/06/25 06:06:18;;;;;;;5.97;3.40;;;;;;;24.96;62.30;99335.06;4995350;28;20514;-70
2021/06/25 06:08:53;;;;;;;6.53;3.20;;;;;;;24.93;62.50;99349.16;4995193;28;20043;-72
2021/06/25 06:11:25;;;;;;;8.20;3.10;;;;;;;25.21;62.16;99362.13;4995603;28;20061;-71
2021/06/25 06:14:00;;;;;;;7.78;3.47;;;;;;;25.43;61.50;99368.53;4994978;28;20100;-71
2021/06/25 06:16:32;;;;;;;6.20;3.03;;;;;;;25.70;60.81;99364.94;4995043;28;20050;-71
2021/06/25 06:19:04;;;;;;;4.35;2.60;;;;;;;25.96;60.49;99361.38;4995203;28;20058;-72
2021/06/25 06:32:24;;;;;;;6.22;3.22;;;;;;;26.54;57.77;99358.16;4994962;28;20054;-71
2021/06/25 06:34:59;;;;;;;6.18;2.92;;;;;;;26.30;57.84;99354.66;4994714;28;20078;-72
2021/06/25 06:37:28;;;;;;;6.13;2.95;;;;;;;26.11;58.60;99348.22;4995148;28;20051;-69
2021/06/25 06:40:01;;;;;;;6.03;3.22;;;;;;;26.31;58.52;99361.59;4995086;28;20071;-71
2021/06/25 06:42:31;;;;;;;6.38;3.10;;;;;;;26.73;57.71;99357.69;4994868;28;20061;-70
2021/06/25 06:45:02;;;;;;;7.05;3.78;;;;;;;26.87;57.11;99361.97;4993618;28;20136;-70
2021/06/25 06:47:32;;;;;;;8.00;4.03;;;;;;;26.93;57.00;99372.00;4994345;28;20109;-69
2021/06/25 06:50:01;;;;;;;6.97;4.30;;;;;;;27.05;56.51;99363.25;5012074;28;20128;-70
2021/06/25 06:52:31;;;;;;;7.90;4.10;;;;;;;27.19;56.96;99370.94;5014121;28;20053;-71
2021/06/25 06:55:00;;;;;;;7.07;4.22;;;;;;;27.49;56.07;99368.69;5014030;28;20057;-69
2021/06/25 06:57:29;;;;;;;;;;;;;;;27.59;55.48;99380.19;5014345;28;20104;-70
2021/06/25 06:59:58;;;;;;;6.93;4.20;;;;;;;27.66;55.61;99381.38;5013886;28;19921;-69
2021/06/25 07:02:28;;;;;;;7.75;4.30;;;;;;;27.58;55.46;99377.66;5014016;28;20104;-68
2021/06/25 07:04:59;;;;;;;8.77;4.40;;;;;;;27.40;55.69;99386.91;4996379;28;20397;-69
2021/06/25 07:07:28;;;;;;;;;;;;;;;27.38;55.72;99381.75;5014255;28;20510;-71
2021/06/25 07:09:58;;;;;;;5.97;4.32;;;;;;;27.52;55.79;99384.19;5013951;28;19936;-71
2021/06/25 07:12:27;;;;;;;5.18;3.65;;;;;;;27.68;55.02;99389.97;5013566;28;20065;-70
2021/06/25 07:14:56;;;;;;;5.45;4.18;;;;;;;27.84;53.94;99385.22;5014023;28;20049;-69
2021/06/25 07:17:28;;;;;;;8.57;4.40;;;;;;;27.92;53.76;99382.84;5013522;28;20417;-71
2021/06/25 07:19:57;;;;;;;5.65;4.13;;;;;;;28.13;54.34;99384.78;5013693;28;20050;-71
2021/06/25 07:22:26;;;;;;;7.53;4.50;;;;;;;28.19;54.42;99384.34;5013638;28;20042;-68
2021/06/25 07:24:58;;;;;;;;;;;;;;;28.29;53.54;99377.41;5014173;28;20049;-69
2021/06/25 07:27:28;;;;;;;6.90;4.30;;;;;;;28.26;53.27;99385.53;5013834;28;20324;-69
2021/06/25 07:30:00;;;;;;;7.53;4.50;;;;;;;28.30;52.85;99394.81;5013737;28;20066;-70
2021/06/25 07:32:34;;;;;;;6.63;4.10;;;;;;;28.36;52.88;99391.75;5013577;28;20049;-68
2021/06/25 07:35:05;;;;;;;8.27;4.53;;;;;;;28.39;52.24;99388.84;5013750;28;20054;-70
2021/06/25 07:37:35;;;;;;;7.85;4.78;;;;;;;28.50;51.45;99383.59;5013672;28;20061;-69
2021/06/25 07:40:07;;;;;;;7.80;4.50;;;;;;;28.58;51.41;99392.53;5013699;28;20060;-70
2021/06/25 07:42:36;;;;;;;7.28;4.57;;;;;;;28.34;52.28;99383.13;5013372;28;20049;-69
2021/06/25 07:45:08;;;;;;;;;;;;;;;28.33;52.68;99392.81;5013818;28;20042;-70
2021/06/25 07:47:41;;;;;;;6.78;4.28;;;;;;;28.43;52.49;99398.19;5013343;28;19929;-69
2021/06/25 07:50:13;;;;;;;6.20;4.50;;;;;;;28.64;52.31;99391.25;5013656;28;20452;-70
2021/06/25 07:52:43;;;;;;;9.20;4.40;;;;;;;28.69;51.45;99399.63;5013399;28;20070;-67
2021/06/25 07:55:13;;;;;;;7.93;4.15;;;;;;;28.75;51.51;99396.47;5013447;28;20038;-70
2021/06/25 07:57:42;;;;;;;6.40;4.15;;;;;;;28.75;51.86;99388.59;5015906;28;20156;-69
2021/06/25 08:00:13;;;;;;;9.27;4.55;;;;;;;28.90;51.61;99392.63;5016749;28;20115;-70
2021/06/25 08:02:45;;;;;;;8.20;4.30;;;;;;;29.08;51.47;99385.88;5017138;28;20042;-70
2021/06/25 08:05:18;;;;;;;5.72;4.18;;;;;;;29.30;50.27;99394.69;5017042;28;20057;-69
2021/06/25 08:07:47;;;;;;;6.57;4.30;;;;;;;29.33;49.66;99394.41;5017108;28;20073;-70
2021/06/25 08:10:18;;;;;;;7.18;4.78;;;;;;;29.46;50.19;99392.47;5016916;28;20054;-70
2021/06/25 08:12:47;;;;;;;6.28;4.32;;;;;;;29.40;50.13;99385.91;5016845;28;20053;-69
2021/06/25 08:15:17;;;;;;;6.35;4.07;;;;;;;29.34;50.21;99386.41;5016940;28;20568;-69
2021/06/25 08:17:47;;;;;;;6.53;4.20;;;;;;;29.43;49.58;99392.69;5016829;28;20061;-70
2021/06/25 08:20:17;;;;;;;8.10;4.20;;;;;;;29.39;50.19;99391.28;5016705;28;20134;-67
2021/06/25 08:22:46;;;;;;;8.43;4.78;;;;;;;29.43;49.11;99385.66;5016481;28;20482;-67
2021/06/25 08:25:15;;;;;;;6.28;4.20;;;;;;;29.47;49.13;99394.94;5016542;28;20052;-69
2021/06/25 08:27:44;;;;;;;6.88;4.38;;;;;;;29.65;49.40;99396.06;5016576;28;20509;-70
2021/06/25 08:30:14;;;;;;;11.20;5.05;;;;;;;29.69;49.15;99392.19;5016543;28;20046;-69
2021/06/25 08:32:44;;;;;;;7.25;4.70;;;;;;;29.74;49.37;99390.03;5016457;28;20464;-69
2021/06/25 08:35:14;;;;;;;7.10;4.68;;;;;;;29.70;49.08;99398.31;5016655;28;20060;-70
2021/06/25 08:37:43;;;;;;;6.15;4.22;;;;;;;29.82;48.82;99403.41;5016393;28;20124;-70
2021/06/25 08:40:13;;;;;;;7.05;4.63;;;;;;;30.06;48.50;99405.75;5016560;28;20048;-70
2021/06/25 08:42:42;;;;;;;6.97;4.15;;;;;;;30.23;48.66;99397.25;5016321;28;20096;-70
2021/06/25 08:45:14;;;;;;;6.38;4.90;;;;;;;30.38;48.95;99405.63;5016266;28;20050;-70
2021/06/25 08:47:45;;;;;;;8.73;4.40;;;;;;;30.36;48.72;99407.56;5016049;28;20052;-69
2021/06/25 08:50:17;;;;;;;6.82;4.60;;;;;;;30.43;48.04;99404.28;5016269;28;20058;-69
2021/06/25 08:52:48;;;;;;;9.35;4.60;;;;;;;30.50;48.04;99415.09;5016120;28;20112;-69
2021/06/25 08:55:19;;;;;;;6.50;4.30;;;;;;;30.36;48.27;99413.69;5016206;28;20058;-69
2021/06/25 08:57:48;;;;;;;7.05;4.20;;;;;;;30.68;46.64;99423.22;5016649;28;20142;-68
2021/06/25 09:00:19;;;;;;;7.93;4.30;;;;;;;30.78;46.46;99421.44;5015877;28;20417;-67
2021/06/25 09:02:49;;;;;;;6.25;4.60;;;;;;;30.78;47.22;99424.09;5015920;28;20046;-68
2021/06/25 09:05:30;;;;;;;7.05;4.40;;;;;;;30.40;47.07;99422.16;5015877;28;20042;-69
2021/06/25 09:08:00;;;;;;;9.10;4.43;;;;;;;30.13;47.74;99427.97;5015179;28;20053;-68
2021/06/25 09:10:33;;;;;;;5.30;4.35;;;;;;;29.85;49.00;99429.44;5016004;28;20133;-68
2021/06/25 09:13:07;;;;;;;7.88;4.32;;;;;;;30.01;48.08;99431.63;5015923;28;20086;-70
2021/06/25 09:15:38;;;;;;;7.15;4.45;;;;;;;30.11;47.96;99440.44;5015860;28;20129;-70
2021/06/25 09:18:09;;;;;;;5.32;4.45;;;;;;;29.79;48.28;99434.41;5015519;28;20489;-69
2021/06/25 09:20:42;;;;;;;6.75;4.53;;;;;;;29.46;48.85;99440.66;5015622;28;20077;-71
2021/06/25 09:23:14;;;;;;;6.78;4.65;;;;;;;29.33;49.57;99447.00;5015613;28;20062;-70
2021/06/25 09:25:51;;;;;;;6.13;4.43;;;;;;;29.05;50.03;99449.22;5015581;28;20417;-71
2021/06/25 09:28:23;;;;;;;6.13;4.65;;;;;;;28.88;50.22;99449.75;5015516;28;20061;-70
2021/06/25 09:30:53;;;;;;;6.50;4.35;;;;;;;28.83;49.84;99457.16;5015501;28;20049;-70
2021/06/25 09:33:25;;;;;;;8.35;4.90;;;;;;;29.15;49.67;99460.66;5015602;28;20520;-71
2021/06/25 09:35:57;;;;;;;6.47;4.20;;;;;;;29.54;49.00;99458.41;5015440;28;20617;-69
2021/06/25 09:38:39;;;;;;;6.60;4.40;;;;;;;29.81;48.17;99458.78;5015045;28;20065;-69
2021/06/25 09:41:20;;;;;;;6.03;4.60;;;;;;;30.26;46.46;99459.34;5015031;28;20555;-68
2021/06/25 09:43:55;;;;;;;9.32;4.43;;;;;;;30.48;45.42;99464.47;5014828;28;20060;-72
2021/06/25 09:46:32;;;;;;;8.73;4.65;;;;;;;30.42;46.63;99462.38;5013011;28;20124;-72
2021/06/25 09:49:03;;;;;;;6.45;4.65;;;;;;;30.80;46.09;99459.06;5014575;28;20070;-72
2021/06/25 09:51:35;;;;;;;6.45;4.63;;;;;;;31.12;45.36;99455.25;5014980;28;20046;-71
2021/06/25 09:54:07;;;;;;;6.97;4.15;;;;;;;31.14;45.82;99457.78;5015002;28;20088;-71
2021/06/25 09:56:47;;;;;;;5.38;4.20;;;;;;;31.19;45.08;99457.38;5014832;28;20053;-70
2021/06/25 09:59:41;;;;;;;6.85;4.25;;;;;;;30.62;45.66;99471.22;5014967;28;20046;-70
2021/06/25 10:02:23;;;;;;;6.30;4.13;;;;;;;30.33;46.46;99471.06;5014616;28;20565;-69
2021/06/25 10:04:53;;;;;;;5.80;4.20;;;;;;;30.70;46.16;99463.44;5014757;28;20137;-69
2021/06/25 10:07:29;;;;;;;5.32;3.80;;;;;;;30.77;45.95;99465.44;5014791;28;20073;-69
2021/06/25 10:10:07;;;;;;;7.13;4.20;;;;;;;31.20;45.30;99465.13;5014654;28;20053;-68
2021/06/25 10:12:39;;;;;;;6.82;4.05;;;;;;;31.36;43.84;99452.22;4997438;28;20512;-72
2021/06/25 10:15:13;;;;;;;6.85;4.30;;;;;;;30.87;44.11;99466.28;5014803;28;20049;-71
2021/06/25 10:17:43;;;;;;;10.23;5.13;;;;;;;30.41;44.60;99469.44;5014722;28;20041;-70
2021/06/25 10:20:15;;;;;;;6.63;4.40;;;;;;;30.45;45.53;99460.31;5013875;28;20407;-71
2021/06/25 10:22:51;;;;;;;6.57;4.60;;;;;;;30.80;44.24;99464.31;5016526;28;20045;-71
2021/06/25 10:25:24;;;;;;;6.95;4.18;;;;;;;31.00;45.06;99459.00;5018729;28;20073;-71
2021/06/25 10:27:55;;;;;;;6.82;4.70;;;;;;;30.66;45.06;99462.91;5018458;28;20060;-70
2021/06/25 10:30:28;;;;;;;5.13;3.90;;;;;;;30.74;44.24;99459.59;5018987;28;20417;-69
2021/06/25 10:33:00;;;;;;;5.68;4.20;;;;;;;30.94;43.08;99456.91;5016956;28;20054;-73
2021/06/25 10:35:33;;;;;;;5.78;4.15;;;;;;;31.17;43.05;99456.69;5014376;28;20125;-69
2021/06/25 10:38:07;;;;;;;5.75;4.13;;;;;;;30.87;42.62;99454.91;5014504;28;20072;-70
2021/06/25 10:40:55;;;;;;;6.57;3.85;;;;;;;30.87;42.72;99450.47;5014472;28;20099;-71
2021/06/25 10:43:39;;;;;;;5.75;3.90;;;;;;;31.48;43.50;99447.72;5014664;28;20061;-71
2021/06/25 10:46:35;;;;;;;5.90;3.60;;;;;;;31.66;42.28;99456.59;5014281;28;20489;-71
2021/06/25 10:49:13;;;;;;;6.95;3.63;;;;;;;30.78;42.47;99458.34;5014125;28;20428;-71
2021/06/25 10:51:44;;;;;;;7.78;4.35;;;;;;;30.81;42.31;99456.28;5014061;28;20513;-72
2021/06/25 10:54:21;;;;;;;5.22;3.83;;;;;;;31.24;42.10;99458.63;5014062;28;20559;-71
2021/06/25 10:57:07;;;;;;;6.55;4.00;;;;;;;31.04;42.48;99463.03;5014009;28;20145;-71
2021/06/25 10:59:46;;;;;;;9.48;4.10;;;;;;;30.61;43.18;99459.00;5013933;28;20069;-71
2021/06/25 11:02:16;;;;;;;4.95;3.92;;;;;;;30.77;43.82;99459.31;5013341;28;20053;-70
2021/06/25 11:04:46;;;;;;;6.63;4.03;;;;;;;31.19;42.93;99457.38;5013973;28;20069;-68
2021/06/25 11:07:18;;;;;;;5.88;3.50;;;;;;;31.65;42.67;99463.66;5013949;28;20061;-71
2021/06/25 11:10:01;;;;;;;7.20;4.10;;;;;;;32.02;41.53;99468.22;5013651;28;20069;-69
2021/06/25 11:12:36;;;;;;;5.80;4.20;;;;;;;32.35;41.22;99462.44;5013947;28;20057;-70
2021/06/25 11:15:30;;;;;;;7.93;4.30;;;;;;;31.81;41.36;99468.38;5014337;28;20056;-70
2021/06/25 11:18:01;;;;;;;6.97;4.63;;;;;;;30.95;42.39;99457.75;5013667;28;20042;-70
2021/06/25 11:20:33;;;;;;;7.28;4.85;;;;;;;30.34;43.51;99470.94;5013827;28;20052;-72
2021/06/25 11:23:09;;;;;;;7.75;4.50;;;;;;;30.00;44.61;99474.72;5013809;28;20524;-70
2021/06/25 11:25:58;;;;;;;6.93;4.78;;;;;;;29.55;45.04;99484.59;5013494;28;20129;-71
2021/06/25 11:28:36;;;;;;;8.23;4.50;;;;;;;29.68;45.39;99484.44;5013564;28;20386;-70
2021/06/25 11:31:20;;;;;;;7.78;4.57;;;;;;;30.46;44.27;99472.53;5013588;28;20061;-70
2021/06/25 11:33:59;;;;;;;8.10;4.10;;;;;;;30.52;43.68;99462.44;5017833;28;20053;-69
2021/06/25 11:36:38;;;;;;;7.18;4.55;;;;;;;30.39;44.02;99468.75;5017972;28;20057;-70
2021/06/25 11:39:26;;;;;;;8.35;4.25;;;;;;;30.23;44.15;99464.88;4999788;28;20050;-71
2021/06/25 11:41:59;;;;;;;8.73;5.05;;;;;;;30.50;44.53;99463.38;4988238;28;20042;-70
2021/06/25 11:44:30;;;;;;;9.05;4.75;;;;;;;30.37;44.87;99468.06;5000178;28;20056;-70
2021/06/25 11:47:07;;;;;;;6.38;4.43;;;;;;;30.05;44.91;99467.28;5017678;28;20041;-70
2021/06/25 11:49:39;;;;;;;5.88;4.15;;;;;;;29.86;44.98;99467.16;5017338;28;20478;-69
2021/06/25 11:52:14;;;;;;;7.57;5.20;;;;;;;29.49;45.42;99461.41;5017664;28;20149;-69
2021/06/25 11:54:49;;;;;;;6.78;4.80;;;;;;;29.49;45.84;99452.72;5017304;28;20405;-69
2021/06/25 11:57:22;;;;;;;7.15;4.68;;;;;;;30.18;45.15;99452.13;5017429;28;20058;-69
2021/06/25 12:00:05;;;;;;;6.78;4.28;;;;;;;30.84;44.28;99444.63;5017431;28;20125;-69
2021/06/25 12:02:46;;;;;;;7.40;4.45;;;;;;;31.23;42.84;99430.56;4978259;28;20080;-69
2021/06/25 12:05:20;;;;;;;5.90;4.45;;;;;;;31.45;42.07;99425.06;4978250;28;20075;-69
2021/06/25 12:08:03;;;;;;;6.95;3.85;;;;;;;31.42;42.38;99430.59;4978219;28;20070;-69
2021/06/25 12:10:44;;;;;;;8.48;4.25;;;;;;;30.75;42.58;99438.38;4977964;28;20055;-70
2021/06/25 12:13:18;;;;;;;9.27;4.80;;;;;;;30.71;43.16;99428.22;4978154;28;20050;-71